»·PEaware :: N72CS KAPV-KBFL

N72CS :: KAPV-KBFL

FLIGHT INFORMATION

Flight Status: Arrived
Operator: Privately registered:
United States
More flights under this callsign
Pilot: Craig S. (32303)
Aircraft: CESSNA 172 SKYHAWK
(C172)
More flights by this aircraft type
Origin: KAPV Apple Valley
United States
Destination: KBFL Meadows
United States
More flights between these airports :: More routes between these airports
Route: EXCON PMD FASTO2
File this flight plan on PilotEdge
Remarks: EXCON1 ODP
Altitude:
(Current/Filed)
11,000ft
Speed:
(Current/Filed)
110kts
Departed: 21-Dec-20 10:15 PM
Arrived: 21-Dec-20 11:25 PM
Distance/Time
Traveled:
105nm/1:10
Distance/Time
To Go:
Arrived

Flight Plot

Page will automatically refresh every two minutes.

Flight plan parsing failed; only flown route is shown


Map Options




Map Legend


Flown Route
Filed Route
Departure Airport
Arrival Airport
Navaid (VOR, NDB)
Fix

Horizontal Profiles

Position Reports

Time Latitude Longitude Heading Altitude Ground
Speed
21-Dec-20 22:05 34.575952 -117.190464 0 3066ft 0kts
21-Dec-20 22:06 34.575952 -117.190464 89 3066ft 0kts
21-Dec-20 22:07 34.575952 -117.190464 89 3066ft 0kts
21-Dec-20 22:08 34.575930 -117.188695 89 3066ft 18kts
21-Dec-20 22:09 34.570885 -117.189615 154 3066ft 8kts
21-Dec-20 22:10 34.570691 -117.189362 112 3066ft 0kts
21-Dec-20 22:11 34.570691 -117.189362 112 3066ft 0kts
21-Dec-20 22:12 34.570691 -117.189362 112 3066ft 0kts
21-Dec-20 22:13 34.570677 -117.189316 109 3066ft 4kts
21-Dec-20 22:14 34.582610 -117.184493 9 3383ft 81kts
21-Dec-20 22:15 34.606489 -117.178157 19 4361ft 86kts
21-Dec-20 22:16 34.631231 -117.175841 354 5329ft 81kts
21-Dec-20 22:17 34.656410 -117.179093 347 6192ft 85kts
21-Dec-20 22:18 34.681753 -117.182570 350 7025ft 86kts
21-Dec-20 22:19 34.707426 -117.186527 349 7802ft 86kts
21-Dec-20 22:20 34.716216 -117.204966 256 8440ft 82kts
21-Dec-20 22:21 34.712696 -117.230919 259 9113ft 77kts
21-Dec-20 22:22 34.706603 -117.255956 246 9711ft 77kts
21-Dec-20 22:23 34.701807 -117.281814 256 10265ft 78kts
21-Dec-20 22:24 34.697039 -117.307973 259 10788ft 79kts
21-Dec-20 22:25 34.693435 -117.340961 264 10811ft 103kts
21-Dec-20 22:26 34.690832 -117.376534 261 10873ft 104kts
21-Dec-20 22:27 34.689124 -117.411085 264 10935ft 103kts
21-Dec-20 22:28 34.686454 -117.446604 260 10982ft 103kts
21-Dec-20 22:29 34.682638 -117.482150 262 11028ft 103kts
21-Dec-20 22:30 34.681961 -117.518759 268 11072ft 103kts
21-Dec-20 22:31 34.682018 -117.555564 269 11113ft 103kts
21-Dec-20 22:32 34.682142 -117.591249 262 11143ft 104kts
21-Dec-20 22:33 34.678698 -117.626680 263 11165ft 103kts
21-Dec-20 22:34 34.675509 -117.662140 263 11134ft 107kts
21-Dec-20 22:35 34.672296 -117.698205 265 11139ft 106kts
21-Dec-20 22:36 34.667823 -117.734054 260 11118ft 107kts
21-Dec-20 22:37 34.662660 -117.769992 258 11087ft 107kts
21-Dec-20 22:38 34.656921 -117.805812 258 11065ft 107kts
21-Dec-20 22:39 34.652959 -117.842083 264 11045ft 107kts
21-Dec-20 22:40 34.649800 -117.878385 263 11025ft 107kts
21-Dec-20 22:41 34.645484 -117.916381 260 11014ft 117kts
21-Dec-20 22:42 34.640029 -117.955957 259 11042ft 118kts
21-Dec-20 22:43 34.636684 -117.996159 266 11039ft 119kts
21-Dec-20 22:44 34.634086 -118.036155 261 11054ft 119kts
21-Dec-20 22:45 34.632889 -118.076136 294 11039ft 122kts
21-Dec-20 22:46 34.660176 -118.101298 306 11036ft 123kts
21-Dec-20 22:47 34.683653 -118.131451 312 11060ft 123kts
21-Dec-20 22:48 34.708748 -118.160181 311 11071ft 123kts
21-Dec-20 22:49 34.732499 -118.190236 308 11087ft 123kts
21-Dec-20 22:50 34.755231 -118.221416 305 11103ft 122kts
21-Dec-20 22:51 34.777731 -118.252837 309 11107ft 124kts
21-Dec-20 22:52 34.800314 -118.284488 303 11089ft 123kts
21-Dec-20 22:53 34.822515 -118.316868 308 11073ft 124kts
21-Dec-20 22:54 34.846877 -118.347136 310 11066ft 124kts
21-Dec-20 22:55 34.870621 -118.378049 304 11056ft 124kts
21-Dec-20 22:56 34.894760 -118.408625 306 11049ft 125kts
21-Dec-20 22:57 34.917084 -118.441074 302 11048ft 124kts
21-Dec-20 22:58 34.940194 -118.472714 313 11042ft 127kts
21-Dec-20 22:59 34.966076 -118.501476 311 11048ft 126kts
21-Dec-20 23:00 34.991488 -118.531239 318 11031ft 128kts
21-Dec-20 23:01 35.019321 -118.558023 314 11064ft 125kts
21-Dec-20 23:02 35.044496 -118.587418 307 11065ft 124kts
21-Dec-20 23:03 35.071418 -118.615403 313 11049ft 126kts
21-Dec-20 23:04 35.096125 -118.645586 304 11072ft 123kts
21-Dec-20 23:05 35.121624 -118.674317 314 11158ft 117kts
21-Dec-20 23:06 35.131424 -118.686023 308 11054ft 125kts
21-Dec-20 23:07 35.147481 -118.707225 306 10780ft 139kts
21-Dec-20 23:08 35.171610 -118.744340 306 9994ft 136kts
21-Dec-20 23:09 35.195932 -118.780465 314 8884ft 144kts
21-Dec-20 23:10 35.229906 -118.809276 332 6146ft 136kts
21-Dec-20 23:11 35.257035 -118.838551 306 4871ft 104kts
21-Dec-20 23:12 35.274456 -118.865359 319 4646ft 90kts
21-Dec-20 23:13 35.290743 -118.885748 314 4595ft 70kts
21-Dec-20 23:14 35.306354 -118.902244 319 4183ft 70kts
21-Dec-20 23:15 35.320704 -118.920766 318 3728ft 70kts
21-Dec-20 23:16 35.336235 -118.938168 317 3271ft 70kts
21-Dec-20 23:17 35.350804 -118.956258 320 2846ft 70kts
21-Dec-20 23:18 35.365678 -118.974049 316 2444ft 71kts
21-Dec-20 23:19 35.380791 -118.991590 316 2027ft 69kts
21-Dec-20 23:20 35.395629 -119.009721 315 1583ft 67kts
21-Dec-20 23:21 35.409241 -119.025954 312 1135ft 67kts
21-Dec-20 23:22 35.422247 -119.042094 316 807ft 66kts
21-Dec-20 23:24 35.435587 -119.058264 314 489ft 41kts
21-Dec-20 23:25 35.440661 -119.062907 44 498ft 6kts
21-Dec-20 23:26 35.439766 -119.061098 135 499ft 27kts
21-Dec-20 23:27 35.435189 -119.055570 135 492ft 13kts
21-Dec-20 23:28 35.435131 -119.053552 66 499ft 2kts
21-Dec-20 23:29 35.435135 -119.053539 67 499ft 0kts
21-Dec-20 23:30 35.435135 -119.053539 67 499ft 0kts
21-Dec-20 23:31 35.435135 -119.053539 67 499ft 0kts
21-Dec-20 23:32 35.435135 -119.053539 67 499ft 0kts
21-Dec-20 23:33 35.435136 -119.053539 67 499ft 0kts
21-Dec-20 23:34 35.435135 -119.053539 67 499ft 0kts
21-Dec-20 23:35 35.435135 -119.053539 67 499ft 0kts
21-Dec-20 23:36 35.435135 -119.053539 67 499ft 0kts
21-Dec-20 23:37 35.435135 -119.053539 67 499ft 0kts
21-Dec-20 23:38 35.435135 -119.053539 67 499ft 0kts
21-Dec-20 23:39 35.435135 -119.053539 67 499ft 0kts
21-Dec-20 23:40 35.435135 -119.053539 67 499ft 0kts

Navigation Log

Ident Type
Flight plan parsing failed, navigation log unavailable